createdAt,value
2022-09-05T00:02:02.247Z,5.53
2022-09-05T00:04:50.976Z,5.43
2022-09-05T00:07:59.199Z,5.93
2022-09-05T00:10:37.220Z,5.75
2022-09-05T00:13:09.943Z,5.65
2022-09-05T00:15:58.358Z,5.60
2022-09-05T00:24:19.830Z,5.70
2022-09-05T00:24:32.275Z,5.32
2022-09-05T00:25:14.880Z,5.03
2022-09-05T00:27:42.734Z,6.20
2022-09-05T00:31:07.810Z,6.55
2022-09-05T00:33:17.748Z,6.35
2022-09-05T00:36:21.931Z,7.85
2022-09-05T00:39:01.362Z,8.05
2022-09-05T00:41:29.255Z,10.57
2022-09-05T00:44:03.038Z,11.65
2022-09-05T00:46:34.825Z,11.55
2022-09-05T00:49:37.362Z,12.63
2022-09-05T00:52:10.533Z,14.25
2022-09-05T00:54:53.305Z,13.15
2022-09-05T00:57:41.689Z,12.88
2022-09-05T01:00:25.265Z,13.98
2022-09-05T01:03:10.758Z,13.32
2022-09-05T01:05:43.666Z,13.52
2022-09-05T01:08:21.776Z,14.05
2022-09-05T01:11:21.001Z,13.98
2022-09-05T01:14:00.163Z,14.40
2022-09-05T01:17:02.679Z,15.00
2022-09-05T01:23:00.458Z,13.55
2022-09-05T01:25:47.092Z,12.52
2022-09-05T01:29:17.947Z,11.48
2022-09-05T01:31:59.124Z,10.38
2022-09-05T01:34:41.691Z,11.77
2022-09-05T01:37:31.270Z,10.65
2022-09-05T01:40:22.198Z,11.05
2022-09-05T01:43:06.109Z,10.73
2022-09-05T01:45:54.616Z,11.23
2022-09-05T01:48:35.401Z,11.18
2022-09-05T01:51:37.594Z,10.57
2022-09-05T01:54:29.221Z,11.00
2022-09-05T01:57:14.884Z,10.43
2022-09-05T01:59:56.072Z,11.45
2022-09-05T02:02:48.948Z,10.10
2022-09-05T02:05:57.066Z,9.48
2022-09-05T02:08:41.953Z,9.30
2022-09-05T02:11:11.266Z,9.65
2022-09-05T02:13:38.027Z,10.00
2022-09-05T02:16:23.279Z,9.05
2022-09-05T02:19:09.405Z,10.00
2022-09-05T02:21:56.676Z,9.77
2022-09-05T02:24:33.192Z,9.43
2022-09-05T02:27:31.790Z,8.82
2022-09-05T02:30:18.686Z,8.60
2022-09-05T02:33:14.256Z,8.50
2022-09-05T02:35:52.448Z,8.48
2022-09-05T02:39:25.592Z,7.63
2022-09-05T02:45:13.702Z,7.93
2022-09-05T02:45:19.716Z,7.50
2022-09-05T02:47:23.480Z,7.50
2022-09-05T02:53:42.843Z,7.78
2022-09-05T02:57:34.567Z,8.20
2022-09-05T02:57:36.861Z,6.63
2022-09-05T02:59:16.075Z,7.28
2022-09-05T03:02:25.959Z,6.38
2022-09-05T03:05:05.084Z,6.68
2022-09-05T03:07:37.846Z,6.32
2022-09-05T03:10:53.941Z,6.30
2022-09-05T03:13:57.086Z,5.70
2022-09-05T03:16:32.689Z,6.43
2022-09-05T03:19:26.587Z,5.18
2022-09-05T03:21:56.100Z,4.63
2022-09-05T03:24:37.710Z,4.30
2022-09-05T03:27:29.434Z,5.60
2022-09-05T03:30:06.550Z,5.35
2022-09-05T03:32:54.559Z,5.05
2022-09-05T03:35:42.396Z,4.93
2022-09-05T03:38:17.831Z,4.72
2022-09-05T03:40:47.101Z,5.10
2022-09-05T03:43:32.633Z,4.97
2022-09-05T03:46:08.306Z,5.10
2022-09-05T03:49:58.045Z,4.78
2022-09-05T03:57:08.774Z,5.53
2022-09-05T03:57:20.727Z,7.20
2022-09-05T03:59:20.244Z,6.00
2022-09-05T04:03:51.782Z,5.30
2022-09-05T04:08:15.459Z,5.35
2022-09-05T04:10:28.154Z,5.85
2022-09-05T04:13:30.216Z,5.75
2022-09-05T04:16:22.033Z,5.70
2022-09-05T04:19:18.258Z,6.22
2022-09-05T04:22:12.481Z,6.70
2022-09-05T04:24:53.175Z,6.22
2022-09-05T04:27:24.377Z,6.25
2022-09-05T04:30:38.530Z,7.03
2022-09-05T04:33:22.202Z,6.15
2022-09-05T04:36:26.417Z,6.45
2022-09-05T04:39:17.629Z,6.63
2022-09-05T04:41:55.405Z,6.28
2022-09-05T04:44:37.349Z,7.20
2022-09-05T04:47:24.477Z,7.47
2022-09-05T04:50:04.386Z,7.70
2022-09-05T04:52:49.384Z,7.00
2022-09-05T04:55:20.799Z,7.80
2022-09-05T04:58:13.664Z,7.47
2022-09-05T05:06:05.570Z,7.28
2022-09-05T05:06:10.498Z,7.28
2022-09-05T05:06:44.437Z,7.95
2022-09-05T05:09:18.677Z,7.28
2022-09-05T05:17:58.149Z,6.55
2022-09-05T05:18:14.078Z,5.90
2022-09-05T05:18:41.200Z,6.50
2022-09-05T05:20:52.834Z,5.80
2022-09-05T05:23:50.490Z,4.00
2022-09-05T05:26:47.316Z,4.70
2022-09-05T05:29:20.922Z,4.97
2022-09-05T05:31:54.455Z,5.13
2022-09-05T05:34:26.081Z,5.53
2022-09-05T05:37:05.857Z,4.97
2022-09-05T05:39:35.513Z,4.82
2022-09-05T05:42:19.403Z,5.45
2022-09-05T05:44:53.918Z,3.65
2022-09-05T05:47:42.370Z,3.95
2022-09-05T05:50:35.264Z,3.28
2022-09-05T05:53:42.466Z,3.05
2022-09-05T05:56:10.524Z,3.30
2022-09-05T05:59:25.303Z,4.18
2022-09-05T06:02:10.623Z,2.88
2022-09-05T06:04:55.233Z,3.80
2022-09-05T06:09:14.151Z,3.67
2022-09-05T06:14:56.254Z,2.97
2022-09-05T06:15:05.252Z,3.08
2022-09-05T06:18:02.901Z,3.40
2022-09-05T06:22:07.419Z,2.80
2022-09-05T06:23:53.293Z,2.83
2022-09-05T06:26:59.023Z,2.80
2022-09-05T06:29:35.218Z,2.70
2022-09-05T06:32:15.659Z,2.85
2022-09-05T06:35:17.979Z,3.92
2022-09-05T06:37:50.992Z,3.25
2022-09-05T06:40:20.035Z,3.38
2022-09-05T06:43:01.893Z,2.60
2022-09-05T06:45:58.665Z,3.33
2022-09-05T06:49:30.057Z,2.97
2022-09-05T06:51:55.007Z,3.15
2022-09-05T06:55:02.515Z,3.40
2022-09-05T06:57:31.939Z,3.08
2022-09-05T07:00:04.664Z,3.70
2022-09-05T07:02:59.645Z,3.00
2022-09-05T07:05:55.835Z,3.33
2022-09-05T07:08:45.242Z,2.95
2022-09-05T07:11:25.893Z,2.85
2022-09-05T07:14:13.837Z,2.75
2022-09-05T07:16:53.010Z,3.78
2022-09-05T07:19:30.226Z,2.90
2022-09-05T07:22:48.001Z,2.78
2022-09-05T07:25:22.349Z,3.63
2022-09-05T07:28:28.680Z,2.65
2022-09-05T07:31:00.750Z,3.30
2022-09-05T07:33:31.209Z,2.78
2022-09-05T07:36:09.067Z,2.92
2022-09-05T07:38:54.905Z,2.50
2022-09-05T07:41:32.290Z,2.85
2022-09-05T07:44:17.103Z,3.83
2022-09-05T07:46:55.173Z,3.28
2022-09-05T07:49:26.056Z,2.58
2022-09-05T07:55:07.977Z,2.90
2022-09-05T07:56:59.245Z,3.03
2022-09-05T07:57:51.239Z,3.10
2022-09-05T08:00:27.163Z,2.75
2022-09-05T08:03:00.062Z,2.47
2022-09-05T08:05:37.397Z,2.72
2022-09-05T08:08:11.543Z,3.70
2022-09-05T08:11:25.242Z,2.50
2022-09-05T08:13:42.678Z,2.40
2022-09-05T08:16:19.506Z,2.65
2022-09-05T08:19:00.981Z,2.95
2022-09-05T08:21:46.217Z,2.95
2022-09-05T08:24:32.835Z,2.70
2022-09-05T08:27:10.797Z,2.10
2022-09-05T08:29:47.072Z,2.83
2022-09-05T08:32:38.886Z,3.20
2022-09-05T08:35:17.756Z,2.92
2022-09-05T08:37:45.899Z,2.33
2022-09-05T08:40:47.044Z,2.40
2022-09-05T08:45:52.067Z,2.90
2022-09-05T08:46:44.798Z,3.03
2022-09-05T08:49:44.037Z,2.50
2022-09-05T08:52:45.546Z,2.65
2022-09-05T08:55:19.236Z,2.40
2022-09-05T08:57:46.230Z,2.85
2022-09-05T09:00:24.236Z,2.42
2022-09-05T09:03:19.659Z,2.67
2022-09-05T09:06:13.598Z,2.72
2022-09-05T09:08:57.323Z,2.90
2022-09-05T09:11:36.911Z,2.90
2022-09-05T09:14:52.538Z,2.58
2022-09-05T09:17:39.763Z,3.45
2022-09-05T09:20:45.099Z,4.53
2022-09-05T09:23:45.057Z,2.33
2022-09-05T09:26:24.625Z,3.25
2022-09-05T09:29:10.265Z,2.45
2022-09-05T09:34:25.479Z,3.28
2022-09-05T09:37:16.671Z,2.75
2022-09-05T09:40:23.377Z,2.80
2022-09-05T09:43:06.792Z,2.53
2022-09-05T09:46:10.678Z,2.45
2022-09-05T09:48:51.726Z,2.58
2022-09-05T09:51:19.505Z,2.80
2022-09-05T09:54:13.017Z,2.83
2022-09-05T09:56:55.030Z,2.95
2022-09-05T09:59:53.998Z,2.60
2022-09-05T10:07:26.937Z,3.08
2022-09-05T10:10:52.850Z,2.67
2022-09-05T10:11:07.995Z,3.05
2022-09-05T10:11:59.550Z,2.58
2022-09-05T10:15:03.758Z,2.03
2022-09-05T10:18:01.548Z,2.92
2022-09-05T10:21:16.290Z,2.30
2022-09-05T10:24:10.850Z,2.58
2022-09-05T10:26:56.609Z,2.83
2022-09-05T10:30:04.842Z,2.22
2022-09-05T10:35:07.572Z,2.50
2022-09-05T10:35:42.297Z,2.78
2022-09-05T10:38:22.043Z,2.50
2022-09-05T10:41:11.178Z,2.30
2022-09-05T10:44:02.259Z,2.75
2022-09-05T10:46:51.254Z,2.45
2022-09-05T10:49:30.564Z,2.55
2022-09-05T10:52:35.503Z,2.13
2022-09-05T10:56:05.386Z,2.60
2022-09-05T11:02:11.557Z,2.08
2022-09-05T11:02:26.312Z,2.22
2022-09-05T11:05:19.441Z,2.45
2022-09-05T11:08:07.695Z,2.08
2022-09-05T11:10:52.578Z,2.20
2022-09-05T11:13:49.997Z,2.10
2022-09-05T11:16:48.325Z,2.20
2022-09-05T11:19:23.708Z,1.73
2022-09-05T11:22:19.863Z,1.90
2022-09-05T11:24:55.744Z,1.77
2022-09-05T11:27:40.805Z,2.20
2022-09-05T11:30:30.033Z,2.05
2022-09-05T11:39:46.768Z,2.30
2022-09-05T11:39:57.200Z,2.17
2022-09-05T11:40:24.970Z,2.05
2022-09-05T11:42:07.106Z,2.25
2022-09-05T11:44:44.635Z,2.10
2022-09-05T11:47:30.078Z,2.50
2022-09-05T11:50:25.841Z,1.70
2022-09-05T11:53:37.486Z,2.35
2022-09-05T11:56:25.523Z,2.22
2022-09-05T11:59:32.707Z,2.42
2022-09-05T12:02:16.936Z,2.22
2022-09-05T12:05:49.350Z,2.80
2022-09-05T12:08:35.197Z,2.10
2022-09-05T12:11:20.738Z,2.22
2022-09-05T12:13:51.280Z,2.42
2022-09-05T12:16:45.125Z,2.80
2022-09-05T12:19:41.918Z,2.47
2022-09-05T12:22:23.808Z,2.55
2022-09-05T12:27:26.253Z,2.25
2022-09-05T12:28:46.661Z,2.33
2022-09-05T12:32:50.444Z,2.30
2022-09-05T12:36:07.820Z,2.58
2022-09-05T12:39:01.380Z,3.28
2022-09-05T12:41:35.732Z,1.90
2022-09-05T12:43:44.954Z,2.20
2022-09-05T12:48:39.130Z,2.53
2022-09-05T12:51:47.106Z,2.67
2022-09-05T12:54:33.522Z,2.30
2022-09-05T13:00:39.746Z,2.28
2022-09-05T13:02:57.935Z,2.15
2022-09-05T13:03:27.903Z,2.20
2022-09-05T13:06:02.043Z,2.55
2022-09-05T13:08:59.795Z,2.45
2022-09-05T13:14:49.304Z,2.40
2022-09-05T13:14:57.928Z,2.22
2022-09-05T13:17:14.024Z,2.13
2022-09-05T13:19:51.036Z,2.58
2022-09-05T13:22:22.063Z,2.10
2022-09-05T13:24:58.517Z,2.37
2022-09-05T13:27:32.039Z,2.53
2022-09-05T13:31:44.169Z,2.15
2022-09-05T13:38:17.352Z,2.50
2022-09-05T13:38:19.071Z,1.95
2022-09-05T13:39:04.863Z,2.00
2022-09-05T13:41:36.246Z,1.98
2022-09-05T13:44:30.254Z,1.85
2022-09-05T13:47:30.352Z,1.90
2022-09-05T13:50:07.482Z,1.92
2022-09-05T13:52:43.706Z,2.38
2022-09-05T13:55:22.502Z,2.10
2022-09-05T13:57:56.482Z,2.30
2022-09-05T14:00:29.003Z,2.20
2022-09-05T14:03:38.329Z,2.30
2022-09-05T14:06:46.174Z,2.17
2022-09-05T14:09:35.719Z,2.50
2022-09-05T14:12:28.068Z,1.88
2022-09-05T14:15:09.362Z,2.50
2022-09-05T14:17:55.619Z,2.15
2022-09-05T14:20:49.831Z,2.70
2022-09-05T14:23:20.066Z,2.28
2022-09-05T14:25:53.815Z,2.08
2022-09-05T14:28:27.911Z,2.28
2022-09-05T14:33:08.111Z,3.10
2022-09-05T14:37:42.576Z,3.15
2022-09-05T14:37:44.166Z,2.88
2022-09-05T14:41:11.790Z,2.75
2022-09-05T14:47:06.332Z,2.17
2022-09-05T14:49:49.393Z,2.38
2022-09-05T14:52:31.485Z,2.10
2022-09-05T15:02:41.159Z,2.10
2022-09-05T15:02:58.245Z,2.13
2022-09-05T15:06:33.401Z,1.70
2022-09-05T15:12:16.351Z,2.28
2022-09-05T15:12:21.670Z,1.90
2022-09-05T15:14:37.581Z,1.80
2022-09-05T15:17:05.937Z,2.17
2022-09-05T15:20:06.879Z,2.10
2022-09-05T15:22:37.705Z,1.90
2022-09-05T15:25:20.318Z,1.88
2022-09-05T15:27:49.629Z,1.50
2022-09-05T15:30:25.662Z,2.20
2022-09-05T15:33:15.682Z,2.20
2022-09-05T15:35:44.952Z,1.83
2022-09-05T15:38:27.104Z,2.00
2022-09-05T15:41:02.959Z,2.08
2022-09-05T15:43:30.353Z,2.25
2022-09-05T15:46:04.877Z,1.90
2022-09-05T15:48:36.257Z,2.08
2022-09-05T15:51:17.664Z,2.47
2022-09-05T15:53:44.316Z,2.10
2022-09-05T15:56:10.922Z,2.38
2022-09-05T15:58:53.538Z,2.00
2022-09-05T16:01:46.424Z,2.58
2022-09-05T16:10:30.138Z,1.90
2022-09-05T16:10:34.370Z,1.88
2022-09-05T16:10:35.757Z,1.88
2022-09-05T16:13:10.979Z,2.28
2022-09-05T16:23:13.708Z,2.58
2022-09-05T16:23:24.618Z,2.50
2022-09-05T16:23:32.022Z,2.60
2022-09-05T16:24:24.938Z,2.33
2022-09-05T16:27:13.025Z,2.10
2022-09-05T16:29:44.563Z,2.90
2022-09-05T16:32:14.930Z,2.97
2022-09-05T16:34:56.970Z,2.40
2022-09-05T16:40:23.612Z,2.70
2022-09-05T16:43:05.479Z,2.63
2022-09-05T16:45:43.044Z,2.40
2022-09-05T16:48:21.563Z,2.42
2022-09-05T16:51:13.239Z,2.67
2022-09-05T16:54:11.052Z,2.67
2022-09-05T16:56:49.966Z,2.47
2022-09-05T16:59:23.956Z,2.40
2022-09-05T17:02:06.072Z,2.58
2022-09-05T17:05:02.949Z,2.63
2022-09-05T17:07:55.595Z,1.98
2022-09-05T17:10:29.068Z,2.20
2022-09-05T17:12:56.443Z,2.60
2022-09-05T17:15:36.227Z,2.15
2022-09-05T17:18:21.957Z,2.15
2022-09-05T17:20:55.798Z,2.53
2022-09-05T17:29:23.872Z,2.45
2022-09-05T17:29:29.830Z,2.78
2022-09-05T17:32:47.607Z,2.60
2022-09-05T17:35:26.215Z,3.15
2022-09-05T17:38:16.975Z,2.80
2022-09-05T17:41:19.422Z,4.15
2022-09-05T17:46:29.813Z,3.33
2022-09-05T17:49:17.619Z,3.38
2022-09-05T17:51:52.078Z,3.20
2022-09-05T17:54:27.649Z,3.92
2022-09-05T17:56:54.382Z,2.95
2022-09-05T17:59:21.372Z,3.30
2022-09-05T18:02:25.838Z,3.20
2022-09-05T18:04:54.264Z,4.00
2022-09-05T18:07:27.127Z,3.15
2022-09-05T18:10:12.351Z,3.25
2022-09-05T18:15:27.720Z,3.15
2022-09-05T18:17:54.597Z,3.53
2022-09-05T18:20:27.390Z,3.90
2022-09-05T18:23:39.622Z,3.58
2022-09-05T18:26:20.940Z,3.17
2022-09-05T18:29:14.496Z,2.92
2022-09-05T18:31:42.722Z,3.63
2022-09-05T18:34:13.608Z,2.95
2022-09-05T18:36:43.885Z,3.50
2022-09-05T18:39:37.237Z,3.78
2022-09-05T18:42:25.846Z,4.40
2022-09-05T18:44:59.696Z,3.42
2022-09-05T18:47:52.709Z,3.28
2022-09-05T18:50:27.922Z,3.28
2022-09-05T18:53:09.312Z,2.78
2022-09-05T18:56:10.142Z,2.67
2022-09-05T18:58:34.529Z,3.55
2022-09-05T19:01:28.212Z,3.50
2022-09-05T19:03:59.769Z,3.33
2022-09-05T19:06:35.863Z,3.33
2022-09-05T19:09:26.754Z,3.47
2022-09-05T19:11:53.984Z,3.03
2022-09-05T19:14:44.946Z,3.47
2022-09-05T19:17:23.608Z,3.38
2022-09-05T19:20:31.401Z,3.33
2022-09-05T19:23:09.738Z,2.90
2022-09-05T19:25:43.077Z,2.60
2022-09-05T19:35:15.485Z,2.70
2022-09-05T19:36:54.504Z,3.42
2022-09-05T19:36:56.794Z,3.05
2022-09-05T19:45:05.615Z,3.00
2022-09-05T19:47:42.044Z,3.28
2022-09-05T19:47:46.357Z,4.28
2022-09-05T19:48:34.379Z,3.20
2022-09-05T19:51:20.546Z,3.05
2022-09-05T19:54:05.047Z,2.92
2022-09-05T19:56:43.202Z,3.60
2022-09-05T19:59:22.647Z,2.92
2022-09-05T20:01:51.925Z,3.08
2022-09-05T20:04:20.275Z,3.35
2022-09-05T20:06:49.461Z,3.70
2022-09-05T20:09:22.458Z,3.28
2022-09-05T20:11:58.240Z,3.30
2022-09-05T20:14:35.668Z,3.15
2022-09-05T20:17:24.801Z,3.08
2022-09-05T20:20:09.911Z,3.08
2022-09-05T20:22:48.728Z,2.83
2022-09-05T20:25:36.144Z,3.20
2022-09-05T20:28:10.231Z,3.55
2022-09-05T20:30:42.247Z,7.22
2022-09-05T20:33:44.434Z,3.17
2022-09-05T20:43:07.762Z,3.28
2022-09-05T20:43:24.163Z,3.20
2022-09-05T20:43:25.329Z,2.72
2022-09-05T20:44:51.539Z,4.63
2022-09-05T20:54:09.665Z,4.35
2022-09-05T20:54:20.156Z,4.15
2022-09-05T20:54:25.001Z,4.30
2022-09-05T20:56:21.534Z,4.43
2022-09-05T20:58:55.661Z,6.80
2022-09-05T21:01:23.687Z,4.72
2022-09-05T21:03:59.553Z,4.38
2022-09-05T21:06:33.853Z,3.88
2022-09-05T21:09:25.429Z,5.22
2022-09-05T21:11:55.729Z,4.55
2022-09-05T21:14:24.343Z,9.02
2022-09-05T21:17:00.146Z,6.75
2022-09-05T21:19:30.791Z,5.15
2022-09-05T21:22:23.789Z,7.45
2022-09-05T21:25:41.398Z,7.43
2022-09-05T21:28:36.493Z,6.00
2022-09-05T21:31:08.814Z,8.88
2022-09-05T21:33:45.857Z,5.53
2022-09-05T21:36:15.356Z,4.15
2022-09-05T21:38:43.298Z,4.32
2022-09-05T21:41:14.318Z,5.03
2022-09-05T21:47:33.318Z,4.55
2022-09-05T21:47:43.873Z,4.57
2022-09-05T21:49:18.591Z,5.65
2022-09-05T21:51:51.914Z,5.30
2022-09-05T21:59:14.249Z,5.38
2022-09-05T21:59:21.635Z,4.38
2022-09-05T22:00:10.607Z,4.55
2022-09-05T22:02:38.141Z,4.97
2022-09-05T22:05:05.100Z,5.10
2022-09-05T22:07:35.614Z,4.63
2022-09-05T22:10:04.452Z,5.07
2022-09-05T22:12:36.148Z,4.80
2022-09-05T22:15:12.997Z,5.88
2022-09-05T22:17:54.449Z,5.20
2022-09-05T22:20:29.224Z,5.07
2022-09-05T22:22:56.325Z,4.88
2022-09-05T22:25:30.874Z,4.32
2022-09-05T22:28:06.401Z,5.47
2022-09-05T22:30:36.664Z,6.60
2022-09-05T22:33:06.607Z,5.50
2022-09-05T22:35:34.564Z,4.72
2022-09-05T22:38:12.582Z,4.68
2022-09-05T22:40:42.128Z,5.30
2022-09-05T22:43:10.520Z,5.10
2022-09-05T22:45:39.108Z,5.80
2022-09-05T22:48:08.956Z,4.57
2022-09-05T22:50:36.152Z,4.47
2022-09-05T22:53:06.747Z,4.38
2022-09-05T22:55:38.608Z,4.90
2022-09-05T22:58:06.389Z,4.88
2022-09-05T23:00:34.531Z,5.22
2022-09-05T23:03:03.512Z,5.40
2022-09-05T23:05:31.007Z,5.18
2022-09-05T23:07:59.281Z,5.00
2022-09-05T23:10:26.862Z,4.88
2022-09-05T23:12:54.199Z,4.53
2022-09-05T23:15:20.955Z,4.55
2022-09-05T23:17:55.146Z,5.70
2022-09-05T23:20:22.643Z,4.88
2022-09-05T23:22:49.578Z,5.35
2022-09-05T23:25:17.378Z,5.35
2022-09-05T23:27:44.334Z,4.35
2022-09-05T23:30:11.849Z,5.03
2022-09-05T23:32:45.062Z,5.25
2022-09-05T23:35:12.175Z,4.85
2022-09-05T23:37:43.145Z,5.15
2022-09-05T23:40:21.954Z,4.40
2022-09-05T23:42:56.408Z,4.82
2022-09-05T23:45:26.907Z,4.80
2022-09-05T23:47:54.159Z,11.02
2022-09-05T23:50:21.031Z,6.10
2022-09-05T23:52:48.732Z,5.70
2022-09-05T23:55:18.354Z,5.53
2022-09-05T23:57:45.620Z,6.95
